sensor_id;sensor_type;location;lat;lon;timestamp;P1;durP1;ratioP1;P2;durP2;ratioP2
52029;SDS011;38043;53.224;6.580;2023-07-09T00:02:00;8.80;;;6.35;;
52029;SDS011;38043;53.224;6.580;2023-07-09T00:04:26;11.85;;;6.85;;
52029;SDS011;38043;53.224;6.580;2023-07-09T00:06:54;11.90;;;6.85;;
52029;SDS011;38043;53.224;6.580;2023-07-09T00:09:23;11.27;;;6.78;;
52029;SDS011;38043;53.224;6.580;2023-07-09T00:11:49;12.48;;;6.70;;
52029;SDS011;38043;53.224;6.580;2023-07-09T00:14:15;10.43;;;6.55;;
52029;SDS011;38043;53.224;6.580;2023-07-09T00:16:42;8.63;;;6.73;;
52029;SDS011;38043;53.224;6.580;2023-07-09T00:19:13;8.80;;;6.82;;
52029;SDS011;38043;53.224;6.580;2023-07-09T00:21:44;8.13;;;6.22;;
52029;SDS011;38043;53.224;6.580;2023-07-09T00:24:11;13.23;;;7.13;;
52029;SDS011;38043;53.224;6.580;2023-07-09T00:26:38;14.40;;;7.00;;
52029;SDS011;38043;53.224;6.580;2023-07-09T00:31:35;12.55;;;6.97;;
52029;SDS011;38043;53.224;6.580;2023-07-09T00:34:04;7.93;;;6.57;;
52029;SDS011;38043;53.224;6.580;2023-07-09T00:36:30;8.60;;;6.78;;
52029;SDS011;38043;53.224;6.580;2023-07-09T00:38:59;9.80;;;6.97;;
52029;SDS011;38043;53.224;6.580;2023-07-09T00:41:30;10.27;;;7.03;;
52029;SDS011;38043;53.224;6.580;2023-07-09T00:43:58;10.27;;;6.65;;
52029;SDS011;38043;53.224;6.580;2023-07-09T00:49:14;12.82;;;8.27;;
52029;SDS011;38043;53.224;6.580;2023-07-09T00:52:02;13.32;;;8.02;;
52029;SDS011;38043;53.224;6.580;2023-07-09T00:54:42;12.95;;;7.95;;
52029;SDS011;38043;53.224;6.580;2023-07-09T00:57:14;9.85;;;7.78;;
52029;SDS011;38043;53.224;6.580;2023-07-09T00:59:43;10.45;;;7.03;;
52029;SDS011;38043;53.224;6.580;2023-07-09T01:02:11;10.18;;;7.68;;
52029;SDS011;38043;53.224;6.580;2023-07-09T01:04:37;8.57;;;6.47;;
52029;SDS011;38043;53.224;6.580;2023-07-09T01:07:04;10.50;;;7.43;;
52029;SDS011;38043;53.224;6.580;2023-07-09T01:09:30;9.40;;;6.97;;
52029;SDS011;38043;53.224;6.580;2023-07-09T01:11:55;10.70;;;7.28;;
52029;SDS011;38043;53.224;6.580;2023-07-09T01:14:26;8.80;;;7.30;;
52029;SDS011;38043;53.224;6.580;2023-07-09T01:16:55;11.80;;;6.50;;
52029;SDS011;38043;53.224;6.580;2023-07-09T01:19:25;10.82;;;7.05;;
52029;SDS011;38043;53.224;6.580;2023-07-09T01:21:57;10.18;;;6.80;;
52029;SDS011;38043;53.224;6.580;2023-07-09T01:27:19;12.40;;;6.50;;
52029;SDS011;38043;53.224;6.580;2023-07-09T01:29:54;9.35;;;6.80;;
52029;SDS011;38043;53.224;6.580;2023-07-09T01:32:21;14.13;;;7.60;;
52029;SDS011;38043;53.224;6.580;2023-07-09T01:34:50;9.73;;;6.80;;
52029;SDS011;38043;53.224;6.580;2023-07-09T01:37:19;9.25;;;7.55;;
52029;SDS011;38043;53.224;6.580;2023-07-09T01:39:49;12.20;;;6.78;;
52029;SDS011;38043;53.224;6.580;2023-07-09T01:42:16;14.13;;;7.20;;
52029;SDS011;38043;53.224;6.580;2023-07-09T01:44:43;9.18;;;6.75;;
52029;SDS011;38043;53.224;6.580;2023-07-09T01:49:36;15.77;;;7.47;;
52029;SDS011;38043;53.224;6.580;2023-07-09T01:52:05;9.55;;;7.38;;
52029;SDS011;38043;53.224;6.580;2023-07-09T01:54:33;12.88;;;7.22;;
52029;SDS011;38043;53.224;6.580;2023-07-09T01:57:15;9.88;;;7.80;;
52029;SDS011;38043;53.224;6.580;2023-07-09T01:59:48;10.50;;;7.70;;
52029;SDS011;38043;53.224;6.580;2023-07-09T02:02:15;10.40;;;7.73;;
52029;SDS011;38043;53.224;6.580;2023-07-09T02:04:47;12.10;;;7.80;;
52029;SDS011;38043;53.224;6.580;2023-07-09T02:07:14;13.65;;;7.28;;
52029;SDS011;38043;53.224;6.580;2023-07-09T02:09:40;13.85;;;7.15;;
52029;SDS011;38043;53.224;6.580;2023-07-09T02:12:06;12.30;;;6.97;;
52029;SDS011;38043;53.224;6.580;2023-07-09T02:14:33;9.45;;;7.10;;
52029;SDS011;38043;53.224;6.580;2023-07-09T02:16:58;14.13;;;7.45;;
52029;SDS011;38043;53.224;6.580;2023-07-09T02:19:24;12.30;;;7.45;;
52029;SDS011;38043;53.224;6.580;2023-07-09T02:21:49;16.50;;;7.45;;
52029;SDS011;38043;53.224;6.580;2023-07-09T02:24:15;11.45;;;7.32;;
52029;SDS011;38043;53.224;6.580;2023-07-09T02:26:41;10.75;;;6.93;;
52029;SDS011;38043;53.224;6.580;2023-07-09T02:29:06;9.20;;;6.38;;
52029;SDS011;38043;53.224;6.580;2023-07-09T02:31:32;9.30;;;7.03;;
52029;SDS011;38043;53.224;6.580;2023-07-09T02:33:59;12.27;;;6.88;;
52029;SDS011;38043;53.224;6.580;2023-07-09T02:36:24;10.07;;;7.88;;
52029;SDS011;38043;53.224;6.580;2023-07-09T02:38:50;10.23;;;8.07;;
52029;SDS011;38043;53.224;6.580;2023-07-09T02:41:16;12.18;;;7.70;;
52029;SDS011;38043;53.224;6.580;2023-07-09T02:43:42;11.65;;;7.85;;
52029;SDS011;38043;53.224;6.580;2023-07-09T02:46:07;13.85;;;7.32;;
52029;SDS011;38043;53.224;6.580;2023-07-09T02:48:33;9.02;;;7.43;;
52029;SDS011;38043;53.224;6.580;2023-07-09T02:50:58;12.68;;;7.32;;
52029;SDS011;38043;53.224;6.580;2023-07-09T02:53:24;12.88;;;8.65;;
52029;SDS011;38043;53.224;6.580;2023-07-09T02:55:50;12.57;;;9.57;;
52029;SDS011;38043;53.224;6.580;2023-07-09T02:58:16;12.00;;;9.13;;
52029;SDS011;38043;53.224;6.580;2023-07-09T03:00:42;12.18;;;8.70;;
52029;SDS011;38043;53.224;6.580;2023-07-09T03:03:07;14.63;;;8.40;;
52029;SDS011;38043;53.224;6.580;2023-07-09T03:05:33;11.88;;;7.78;;
52029;SDS011;38043;53.224;6.580;2023-07-09T03:07:59;10.57;;;7.68;;
52029;SDS011;38043;53.224;6.580;2023-07-09T03:10:25;12.98;;;7.75;;
52029;SDS011;38043;53.224;6.580;2023-07-09T03:12:53;12.45;;;7.28;;
52029;SDS011;38043;53.224;6.580;2023-07-09T03:15:18;10.55;;;7.75;;
52029;SDS011;38043;53.224;6.580;2023-07-09T03:17:44;11.38;;;7.18;;
52029;SDS011;38043;53.224;6.580;2023-07-09T03:20:10;13.95;;;7.32;;
52029;SDS011;38043;53.224;6.580;2023-07-09T03:22:36;9.52;;;7.22;;
52029;SDS011;38043;53.224;6.580;2023-07-09T03:25:02;10.10;;;7.65;;
52029;SDS011;38043;53.224;6.580;2023-07-09T03:27:27;11.90;;;7.95;;
52029;SDS011;38043;53.224;6.580;2023-07-09T03:29:53;11.35;;;8.25;;
52029;SDS011;38043;53.224;6.580;2023-07-09T03:32:18;12.70;;;7.88;;
52029;SDS011;38043;53.224;6.580;2023-07-09T03:34:44;11.20;;;7.95;;
52029;SDS011;38043;53.224;6.580;2023-07-09T03:37:10;11.13;;;7.85;;
52029;SDS011;38043;53.224;6.580;2023-07-09T03:39:35;12.52;;;8.55;;
52029;SDS011;38043;53.224;6.580;2023-07-09T03:42:01;11.65;;;8.40;;
52029;SDS011;38043;53.224;6.580;2023-07-09T03:44:27;10.13;;;7.60;;
52029;SDS011;38043;53.224;6.580;2023-07-09T03:46:52;10.75;;;7.60;;
52029;SDS011;38043;53.224;6.580;2023-07-09T03:49:18;13.02;;;8.10;;
52029;SDS011;38043;53.224;6.580;2023-07-09T03:51:44;12.40;;;8.32;;
52029;SDS011;38043;53.224;6.580;2023-07-09T03:54:09;9.52;;;7.45;;
52029;SDS011;38043;53.224;6.580;2023-07-09T03:56:35;13.35;;;8.27;;
52029;SDS011;38043;53.224;6.580;2023-07-09T03:59:02;10.65;;;8.20;;
52029;SDS011;38043;53.224;6.580;2023-07-09T04:01:27;13.15;;;8.45;;
52029;SDS011;38043;53.224;6.580;2023-07-09T04:03:53;12.70;;;8.32;;
52029;SDS011;38043;53.224;6.580;2023-07-09T04:06:19;12.98;;;8.18;;
52029;SDS011;38043;53.224;6.580;2023-07-09T04:08:44;10.02;;;7.43;;
52029;SDS011;38043;53.224;6.580;2023-07-09T04:11:10;12.18;;;8.20;;
52029;SDS011;38043;53.224;6.580;2023-07-09T04:13:36;10.85;;;7.50;;
52029;SDS011;38043;53.224;6.580;2023-07-09T04:16:01;13.18;;;7.80;;
52029;SDS011;38043;53.224;6.580;2023-07-09T04:18:27;9.38;;;7.63;;
52029;SDS011;38043;53.224;6.580;2023-07-09T04:20:53;18.80;;;9.20;;
52029;SDS011;38043;53.224;6.580;2023-07-09T04:23:18;15.75;;;8.43;;
52029;SDS011;38043;53.224;6.580;2023-07-09T04:25:45;14.60;;;8.80;;
52029;SDS011;38043;53.224;6.580;2023-07-09T04:28:10;11.05;;;7.55;;
52029;SDS011;38043;53.224;6.580;2023-07-09T04:30:36;12.30;;;8.30;;
52029;SDS011;38043;53.224;6.580;2023-07-09T04:33:02;13.40;;;7.60;;
52029;SDS011;38043;53.224;6.580;2023-07-09T04:35:28;10.68;;;7.97;;
52029;SDS011;38043;53.224;6.580;2023-07-09T04:37:53;12.30;;;7.85;;
52029;SDS011;38043;53.224;6.580;2023-07-09T04:40:19;15.23;;;8.38;;
52029;SDS011;38043;53.224;6.580;2023-07-09T04:42:45;10.57;;;8.00;;
52029;SDS011;38043;53.224;6.580;2023-07-09T04:45:11;13.45;;;8.10;;
52029;SDS011;38043;53.224;6.580;2023-07-09T04:47:37;12.88;;;7.93;;
52029;SDS011;38043;53.224;6.580;2023-07-09T04:50:04;12.95;;;7.95;;
52029;SDS011;38043;53.224;6.580;2023-07-09T04:52:31;12.77;;;8.68;;
52029;SDS011;38043;53.224;6.580;2023-07-09T04:54:57;14.05;;;8.43;;
52029;SDS011;38043;53.224;6.580;2023-07-09T04:57:22;15.88;;;7.82;;
52029;SDS011;38043;53.224;6.580;2023-07-09T04:59:50;11.77;;;8.20;;
52029;SDS011;38043;53.224;6.580;2023-07-09T05:02:15;12.25;;;8.32;;
52029;SDS011;38043;53.224;6.580;2023-07-09T05:04:41;9.70;;;7.88;;
52029;SDS011;38043;53.224;6.580;2023-07-09T05:07:07;13.68;;;7.93;;
52029;SDS011;38043;53.224;6.580;2023-07-09T05:09:32;12.73;;;8.20;;
52029;SDS011;38043;53.224;6.580;2023-07-09T05:11:59;11.38;;;7.65;;
52029;SDS011;38043;53.224;6.580;2023-07-09T05:14:26;24.13;;;8.63;;
52029;SDS011;38043;53.224;6.580;2023-07-09T05:16:53;13.00;;;7.82;;
52029;SDS011;38043;53.224;6.580;2023-07-09T05:19:18;13.23;;;7.68;;
52029;SDS011;38043;53.224;6.580;2023-07-09T05:21:44;14.85;;;8.43;;
52029;SDS011;38043;53.224;6.580;2023-07-09T05:24:10;10.25;;;7.22;;
52029;SDS011;38043;53.224;6.580;2023-07-09T05:26:36;11.02;;;7.60;;
52029;SDS011;38043;53.224;6.580;2023-07-09T05:29:02;10.45;;;7.82;;
52029;SDS011;38043;53.224;6.580;2023-07-09T05:31:29;10.50;;;7.93;;
52029;SDS011;38043;53.224;6.580;2023-07-09T05:33:55;13.55;;;7.35;;
52029;SDS011;38043;53.224;6.580;2023-07-09T05:36:21;13.63;;;7.75;;
52029;SDS011;38043;53.224;6.580;2023-07-09T05:38:47;13.02;;;6.95;;
52029;SDS011;38043;53.224;6.580;2023-07-09T05:41:12;11.57;;;7.32;;
52029;SDS011;38043;53.224;6.580;2023-07-09T05:43:41;10.52;;;7.55;;
52029;SDS011;38043;53.224;6.580;2023-07-09T05:46:11;11.55;;;7.57;;
52029;SDS011;38043;53.224;6.580;2023-07-09T05:48:38;9.27;;;7.13;;
52029;SDS011;38043;53.224;6.580;2023-07-09T05:51:03;12.80;;;8.02;;
52029;SDS011;38043;53.224;6.580;2023-07-09T05:53:29;10.52;;;7.28;;
52029;SDS011;38043;53.224;6.580;2023-07-09T05:55:57;10.10;;;6.88;;
52029;SDS011;38043;53.224;6.580;2023-07-09T05:58:23;12.73;;;7.80;;
52029;SDS011;38043;53.224;6.580;2023-07-09T06:00:52;10.85;;;7.55;;
52029;SDS011;38043;53.224;6.580;2023-07-09T06:03:21;13.55;;;7.57;;
52029;SDS011;38043;53.224;6.580;2023-07-09T06:05:48;17.88;;;7.75;;
52029;SDS011;38043;53.224;6.580;2023-07-09T06:08:18;14.68;;;6.93;;
52029;SDS011;38043;53.224;6.580;2023-07-09T06:10:51;9.93;;;7.05;;
52029;SDS011;38043;53.224;6.580;2023-07-09T06:13:19;9.93;;;7.20;;
52029;SDS011;38043;53.224;6.580;2023-07-09T06:15:46;9.43;;;6.88;;
52029;SDS011;38043;53.224;6.580;2023-07-09T06:18:12;8.80;;;6.93;;
52029;SDS011;38043;53.224;6.580;2023-07-09T06:20:38;11.48;;;7.57;;
52029;SDS011;38043;53.224;6.580;2023-07-09T06:23:04;15.18;;;6.88;;
52029;SDS011;38043;53.224;6.580;2023-07-09T06:25:29;10.77;;;6.82;;
52029;SDS011;38043;53.224;6.580;2023-07-09T06:27:56;14.10;;;7.00;;
52029;SDS011;38043;53.224;6.580;2023-07-09T06:30:23;11.73;;;7.05;;
52029;SDS011;38043;53.224;6.580;2023-07-09T06:32:48;9.93;;;7.03;;
52029;SDS011;38043;53.224;6.580;2023-07-09T06:35:14;10.93;;;7.28;;
52029;SDS011;38043;53.224;6.580;2023-07-09T06:37:39;12.27;;;7.00;;
52029;SDS011;38043;53.224;6.580;2023-07-09T06:40:05;13.32;;;7.15;;
52029;SDS011;38043;53.224;6.580;2023-07-09T06:42:33;10.70;;;6.68;;
52029;SDS011;38043;53.224;6.580;2023-07-09T06:45:01;12.88;;;6.95;;
52029;SDS011;38043;53.224;6.580;2023-07-09T06:47:28;15.35;;;7.00;;
52029;SDS011;38043;53.224;6.580;2023-07-09T06:49:54;9.65;;;6.57;;
52029;SDS011;38043;53.224;6.580;2023-07-09T06:52:20;9.32;;;7.05;;
52029;SDS011;38043;53.224;6.580;2023-07-09T06:54:45;13.52;;;7.18;;
52029;SDS011;38043;53.224;6.580;2023-07-09T06:57:11;8.65;;;6.90;;
52029;SDS011;38043;53.224;6.580;2023-07-09T06:59:36;16.05;;;7.78;;
52029;SDS011;38043;53.224;6.580;2023-07-09T07:02:03;9.70;;;7.43;;
52029;SDS011;38043;53.224;6.580;2023-07-09T07:04:28;12.18;;;7.15;;
52029;SDS011;38043;53.224;6.580;2023-07-09T07:06:54;13.48;;;7.30;;
52029;SDS011;38043;53.224;6.580;2023-07-09T07:09:22;8.68;;;6.65;;
52029;SDS011;38043;53.224;6.580;2023-07-09T07:11:48;11.38;;;7.47;;
52029;SDS011;38043;53.224;6.580;2023-07-09T07:14:14;10.55;;;7.10;;
52029;SDS011;38043;53.224;6.580;2023-07-09T07:16:41;13.07;;;7.28;;
52029;SDS011;38043;53.224;6.580;2023-07-09T07:19:07;9.32;;;6.80;;
52029;SDS011;38043;53.224;6.580;2023-07-09T07:21:34;12.57;;;6.93;;
52029;SDS011;38043;53.224;6.580;2023-07-09T07:24:01;9.68;;;6.85;;
52029;SDS011;38043;53.224;6.580;2023-07-09T07:26:28;11.63;;;6.60;;
52029;SDS011;38043;53.224;6.580;2023-07-09T07:28:54;12.63;;;6.82;;
52029;SDS011;38043;53.224;6.580;2023-07-09T07:31:19;12.32;;;6.35;;
52029;SDS011;38043;53.224;6.580;2023-07-09T07:33:45;17.95;;;7.53;;
52029;SDS011;38043;53.224;6.580;2023-07-09T07:36:11;10.73;;;6.95;;
52029;SDS011;38043;53.224;6.580;2023-07-09T07:38:37;9.15;;;6.63;;
52029;SDS011;38043;53.224;6.580;2023-07-09T07:41:02;12.27;;;6.55;;
52029;SDS011;38043;53.224;6.580;2023-07-09T07:43:28;10.80;;;7.15;;
52029;SDS011;38043;53.224;6.580;2023-07-09T07:45:54;13.20;;;7.13;;
52029;SDS011;38043;53.224;6.580;2023-07-09T07:48:20;11.90;;;6.65;;
52029;SDS011;38043;53.224;6.580;2023-07-09T07:50:45;9.98;;;6.35;;
52029;SDS011;38043;53.224;6.580;2023-07-09T07:53:13;14.18;;;6.70;;
52029;SDS011;38043;53.224;6.580;2023-07-09T07:55:40;10.60;;;7.40;;
52029;SDS011;38043;53.224;6.580;2023-07-09T07:58:11;13.17;;;7.10;;
52029;SDS011;38043;53.224;6.580;2023-07-09T08:00:38;12.73;;;7.47;;
52029;SDS011;38043;53.224;6.580;2023-07-09T08:03:04;11.17;;;6.97;;
52029;SDS011;38043;53.224;6.580;2023-07-09T08:05:29;10.48;;;7.22;;
52029;SDS011;38043;53.224;6.580;2023-07-09T08:07:55;11.68;;;7.22;;
52029;SDS011;38043;53.224;6.580;2023-07-09T08:10:21;15.48;;;7.82;;
52029;SDS011;38043;53.224;6.580;2023-07-09T08:12:47;13.35;;;7.15;;
52029;SDS011;38043;53.224;6.580;2023-07-09T08:15:13;11.15;;;6.95;;
52029;SDS011;38043;53.224;6.580;2023-07-09T08:17:39;14.98;;;7.20;;
52029;SDS011;38043;53.224;6.580;2023-07-09T08:20:05;9.95;;;6.68;;
52029;SDS011;38043;53.224;6.580;2023-07-09T08:22:31;14.45;;;7.80;;
52029;SDS011;38043;53.224;6.580;2023-07-09T08:24:57;8.68;;;6.43;;
52029;SDS011;38043;53.224;6.580;2023-07-09T08:27:23;13.88;;;7.60;;
52029;SDS011;38043;53.224;6.580;2023-07-09T08:29:48;9.55;;;6.13;;
52029;SDS011;38043;53.224;6.580;2023-07-09T08:32:14;18.33;;;6.90;;
52029;SDS011;38043;53.224;6.580;2023-07-09T08:34:41;16.95;;;8.00;;
52029;SDS011;38043;53.224;6.580;2023-07-09T08:37:09;14.70;;;6.63;;
52029;SDS011;38043;53.224;6.580;2023-07-09T08:39:34;10.52;;;6.78;;
52029;SDS011;38043;53.224;6.580;2023-07-09T08:42:07;9.35;;;7.25;;
52029;SDS011;38043;53.224;6.580;2023-07-09T08:47:07;10.32;;;6.82;;
52029;SDS011;38043;53.224;6.580;2023-07-09T08:49:59;10.10;;;7.22;;
52029;SDS011;38043;53.224;6.580;2023-07-09T08:52:31;11.70;;;7.78;;
52029;SDS011;38043;53.224;6.580;2023-07-09T08:55:02;11.55;;;7.68;;
52029;SDS011;38043;53.224;6.580;2023-07-09T08:57:34;16.33;;;9.18;;
52029;SDS011;38043;53.224;6.580;2023-07-09T09:00:13;13.90;;;7.80;;
52029;SDS011;38043;53.224;6.580;2023-07-09T09:03:05;13.07;;;8.02;;
52029;SDS011;38043;53.224;6.580;2023-07-09T09:05:30;11.25;;;7.82;;
52029;SDS011;38043;53.224;6.580;2023-07-09T09:08:10;14.90;;;8.10;;
52029;SDS011;38043;53.224;6.580;2023-07-09T09:13:10;17.60;;;8.75;;
52029;SDS011;38043;53.224;6.580;2023-07-09T09:15:42;13.98;;;8.40;;
52029;SDS011;38043;53.224;6.580;2023-07-09T09:18:21;14.55;;;8.02;;
52029;SDS011;38043;53.224;6.580;2023-07-09T09:20:48;12.70;;;9.07;;
52029;SDS011;38043;53.224;6.580;2023-07-09T09:23:20;14.18;;;9.32;;
52029;SDS011;38043;53.224;6.580;2023-07-09T09:25:51;15.90;;;8.83;;
52029;SDS011;38043;53.224;6.580;2023-07-09T09:28:20;15.38;;;10.43;;
52029;SDS011;38043;53.224;6.580;2023-07-09T09:30:47;18.40;;;9.52;;
52029;SDS011;38043;53.224;6.580;2023-07-09T09:33:13;18.63;;;10.50;;
52029;SDS011;38043;53.224;6.580;2023-07-09T09:35:43;15.45;;;9.98;;
52029;SDS011;38043;53.224;6.580;2023-07-09T09:40:37;16.38;;;10.00;;
52029;SDS011;38043;53.224;6.580;2023-07-09T09:43:08;14.35;;;10.20;;
52029;SDS011;38043;53.224;6.580;2023-07-09T09:45:43;15.88;;;10.98;;
52029;SDS011;38043;53.224;6.580;2023-07-09T09:48:13;12.65;;;10.05;;
52029;SDS011;38043;53.224;6.580;2023-07-09T09:50:40;21.38;;;10.40;;
52029;SDS011;38043;53.224;6.580;2023-07-09T09:53:07;15.23;;;10.73;;
52029;SDS011;38043;53.224;6.580;2023-07-09T09:55:37;15.82;;;10.98;;
52029;SDS011;38043;53.224;6.580;2023-07-09T09:58:13;16.58;;;9.48;;
52029;SDS011;38043;53.224;6.580;2023-07-09T10:00:40;16.23;;;10.75;;
52029;SDS011;38043;53.224;6.580;2023-07-09T10:03:13;14.40;;;10.95;;
52029;SDS011;38043;53.224;6.580;2023-07-09T10:05:43;18.67;;;11.40;;
52029;SDS011;38043;53.224;6.580;2023-07-09T10:19:57;14.80;;;9.63;;
52029;SDS011;38043;53.224;6.580;2023-07-09T10:22:46;13.65;;;9.38;;
52029;SDS011;38043;53.224;6.580;2023-07-09T10:25:47;13.15;;;10.02;;
52029;SDS011;38043;53.224;6.580;2023-07-09T10:28:43;21.92;;;10.82;;
52029;SDS011;38043;53.224;6.580;2023-07-09T10:31:22;16.90;;;10.55;;
52029;SDS011;38043;53.224;6.580;2023-07-09T10:34:25;18.80;;;10.70;;
52029;SDS011;38043;53.224;6.580;2023-07-09T10:39:48;14.98;;;9.43;;
52029;SDS011;38043;53.224;6.580;2023-07-09T10:42:24;17.42;;;11.40;;
52029;SDS011;38043;53.224;6.580;2023-07-09T10:45:20;14.30;;;9.50;;
52029;SDS011;38043;53.224;6.580;2023-07-09T10:47:53;12.98;;;8.60;;
52029;SDS011;38043;53.224;6.580;2023-07-09T10:50:29;14.85;;;10.00;;
52029;SDS011;38043;53.224;6.580;2023-07-09T10:53:02;12.68;;;10.30;;
52029;SDS011;38043;53.224;6.580;2023-07-09T10:55:41;17.58;;;10.55;;
52029;SDS011;38043;53.224;6.580;2023-07-09T10:58:30;13.00;;;9.05;;
52029;SDS011;38043;53.224;6.580;2023-07-09T11:01:04;18.63;;;9.52;;
52029;SDS011;38043;53.224;6.580;2023-07-09T11:03:49;15.82;;;10.13;;
52029;SDS011;38043;53.224;6.580;2023-07-09T11:06:20;20.10;;;10.25;;
52029;SDS011;38043;53.224;6.580;2023-07-09T11:08:53;14.90;;;8.57;;
52029;SDS011;38043;53.224;6.580;2023-07-09T11:11:24;13.38;;;9.40;;
52029;SDS011;38043;53.224;6.580;2023-07-09T11:14:09;13.50;;;8.55;;
52029;SDS011;38043;53.224;6.580;2023-07-09T11:16:56;12.07;;;7.93;;
52029;SDS011;38043;53.224;6.580;2023-07-09T11:19:23;13.75;;;8.15;;
52029;SDS011;38043;53.224;6.580;2023-07-09T11:22:04;10.18;;;6.97;;
52029;SDS011;38043;53.224;6.580;2023-07-09T11:25:07;11.32;;;7.93;;
52029;SDS011;38043;53.224;6.580;2023-07-09T11:27:45;13.27;;;7.95;;
52029;SDS011;38043;53.224;6.580;2023-07-09T11:30:18;10.90;;;7.68;;
52029;SDS011;38043;53.224;6.580;2023-07-09T11:32:45;14.63;;;7.82;;
52029;SDS011;38043;53.224;6.580;2023-07-09T11:35:20;11.10;;;8.30;;
52029;SDS011;38043;53.224;6.580;2023-07-09T11:37:51;13.88;;;9.10;;
52029;SDS011;38043;53.224;6.580;2023-07-09T11:40:18;13.85;;;8.88;;
52029;SDS011;38043;53.224;6.580;2023-07-09T11:45:23;19.65;;;8.38;;
52029;SDS011;38043;53.224;6.580;2023-07-09T11:48:09;13.70;;;8.50;;
52029;SDS011;38043;53.224;6.580;2023-07-09T11:50:41;11.68;;;8.50;;
52029;SDS011;38043;53.224;6.580;2023-07-09T11:56:02;22.00;;;9.38;;
52029;SDS011;38043;53.224;6.580;2023-07-09T11:58:29;19.35;;;9.52;;
52029;SDS011;38043;53.224;6.580;2023-07-09T12:00:55;17.40;;;9.70;;
52029;SDS011;38043;53.224;6.580;2023-07-09T12:03:27;17.63;;;7.80;;
52029;SDS011;38043;53.224;6.580;2023-07-09T12:06:00;12.00;;;8.33;;
52029;SDS011;38043;53.224;6.580;2023-07-09T12:08:44;11.00;;;8.25;;
52029;SDS011;38043;53.224;6.580;2023-07-09T12:14:03;15.75;;;8.20;;
52029;SDS011;38043;53.224;6.580;2023-07-09T12:16:33;15.80;;;8.93;;
52029;SDS011;38043;53.224;6.580;2023-07-09T12:19:01;12.45;;;8.52;;
52029;SDS011;38043;53.224;6.580;2023-07-09T12:21:27;10.98;;;7.57;;
52029;SDS011;38043;53.224;6.580;2023-07-09T12:23:55;14.02;;;8.20;;
52029;SDS011;38043;53.224;6.580;2023-07-09T12:26:21;9.40;;;7.57;;
52029;SDS011;38043;53.224;6.580;2023-07-09T12:28:54;7.72;;;6.45;;
52029;SDS011;38043;53.224;6.580;2023-07-09T12:31:26;9.48;;;6.28;;
52029;SDS011;38043;53.224;6.580;2023-07-09T12:33:54;11.90;;;6.50;;
52029;SDS011;38043;53.224;6.580;2023-07-09T12:36:23;12.82;;;6.78;;
52029;SDS011;38043;53.224;6.580;2023-07-09T12:38:51;12.75;;;6.97;;
52029;SDS011;38043;53.224;6.580;2023-07-09T12:41:24;10.45;;;6.20;;
52029;SDS011;38043;53.224;6.580;2023-07-09T12:43:51;10.13;;;6.78;;
52029;SDS011;38043;53.224;6.580;2023-07-09T12:46:18;9.23;;;6.70;;
52029;SDS011;38043;53.224;6.580;2023-07-09T12:48:45;10.50;;;6.90;;
52029;SDS011;38043;53.224;6.580;2023-07-09T12:51:20;11.75;;;6.95;;
52029;SDS011;38043;53.224;6.580;2023-07-09T12:54:03;15.27;;;6.45;;
52029;SDS011;38043;53.224;6.580;2023-07-09T12:56:36;8.88;;;6.45;;
52029;SDS011;38043;53.224;6.580;2023-07-09T12:59:03;13.27;;;6.85;;
52029;SDS011;38043;53.224;6.580;2023-07-09T13:01:55;13.43;;;6.45;;
52029;SDS011;38043;53.224;6.580;2023-07-09T13:04:41;12.88;;;6.40;;
52029;SDS011;38043;53.224;6.580;2023-07-09T13:09:55;11.50;;;6.75;;
52029;SDS011;38043;53.224;6.580;2023-07-09T13:12:31;11.40;;;7.10;;
52029;SDS011;38043;53.224;6.580;2023-07-09T13:14:58;10.38;;;7.00;;
52029;SDS011;38043;53.224;6.580;2023-07-09T13:17:27;13.55;;;6.97;;
52029;SDS011;38043;53.224;6.580;2023-07-09T13:19:55;8.70;;;6.60;;
52029;SDS011;38043;53.224;6.580;2023-07-09T13:22:22;16.20;;;7.13;;
52029;SDS011;38043;53.224;6.580;2023-07-09T13:24:48;9.85;;;7.45;;
52029;SDS011;38043;53.224;6.580;2023-07-09T13:27:14;9.07;;;6.72;;
52029;SDS011;38043;53.224;6.580;2023-07-09T13:29:41;20.65;;;7.72;;
52029;SDS011;38043;53.224;6.580;2023-07-09T13:32:10;13.05;;;8.05;;
52029;SDS011;38043;53.224;6.580;2023-07-09T13:34:39;11.95;;;6.70;;
52029;SDS011;38043;53.224;6.580;2023-07-09T13:37:08;8.85;;;7.07;;
52029;SDS011;38043;53.224;6.580;2023-07-09T13:39:39;10.57;;;6.65;;
52029;SDS011;38043;53.224;6.580;2023-07-09T13:42:09;13.52;;;7.53;;
52029;SDS011;38043;53.224;6.580;2023-07-09T13:44:40;14.25;;;7.28;;
52029;SDS011;38043;53.224;6.580;2023-07-09T13:47:14;10.10;;;7.32;;
52029;SDS011;38043;53.224;6.580;2023-07-09T13:49:42;10.63;;;6.70;;
52029;SDS011;38043;53.224;6.580;2023-07-09T13:52:16;9.70;;;6.35;;
52029;SDS011;38043;53.224;6.580;2023-07-09T13:54:45;10.02;;;6.72;;
52029;SDS011;38043;53.224;6.580;2023-07-09T13:57:13;11.63;;;6.90;;
52029;SDS011;38043;53.224;6.580;2023-07-09T13:59:42;16.15;;;7.00;;
52029;SDS011;38043;53.224;6.580;2023-07-09T14:02:16;7.90;;;6.25;;
52029;SDS011;38043;53.224;6.580;2023-07-09T14:04:42;11.32;;;7.00;;
52029;SDS011;38043;53.224;6.580;2023-07-09T14:07:11;15.95;;;7.13;;
52029;SDS011;38043;53.224;6.580;2023-07-09T14:09:49;26.83;;;7.25;;
52029;SDS011;38043;53.224;6.580;2023-07-09T14:12:15;10.93;;;6.43;;
52029;SDS011;38043;53.224;6.580;2023-07-09T14:14:40;12.32;;;7.53;;
52029;SDS011;38043;53.224;6.580;2023-07-09T14:17:11;11.20;;;7.25;;
52029;SDS011;38043;53.224;6.580;2023-07-09T14:19:38;11.65;;;7.75;;
52029;SDS011;38043;53.224;6.580;2023-07-09T14:22:04;10.30;;;6.87;;
52029;SDS011;38043;53.224;6.580;2023-07-09T14:24:41;8.55;;;6.78;;
52029;SDS011;38043;53.224;6.580;2023-07-09T14:27:07;11.30;;;7.35;;
52029;SDS011;38043;53.224;6.580;2023-07-09T14:31:59;10.20;;;6.65;;
52029;SDS011;38043;53.224;6.580;2023-07-09T14:34:27;9.90;;;7.30;;
52029;SDS011;38043;53.224;6.580;2023-07-09T14:36:57;11.98;;;6.97;;
52029;SDS011;38043;53.224;6.580;2023-07-09T14:39:23;9.63;;;7.13;;
52029;SDS011;38043;53.224;6.580;2023-07-09T14:41:50;10.55;;;6.40;;
52029;SDS011;38043;53.224;6.580;2023-07-09T14:46:53;9.32;;;7.18;;
52029;SDS011;38043;53.224;6.580;2023-07-09T14:49:20;10.35;;;6.63;;
52029;SDS011;38043;53.224;6.580;2023-07-09T14:51:46;15.85;;;6.85;;
52029;SDS011;38043;53.224;6.580;2023-07-09T14:56:55;11.02;;;7.35;;
52029;SDS011;38043;53.224;6.580;2023-07-09T14:59:22;12.95;;;7.07;;
52029;SDS011;38043;53.224;6.580;2023-07-09T15:01:49;13.00;;;7.07;;
52029;SDS011;38043;53.224;6.580;2023-07-09T15:06:50;11.32;;;6.97;;
52029;SDS011;38043;53.224;6.580;2023-07-09T15:09:19;10.48;;;7.50;;
52029;SDS011;38043;53.224;6.580;2023-07-09T15:11:46;10.15;;;6.32;;
52029;SDS011;38043;53.224;6.580;2023-07-09T15:14:14;13.88;;;7.95;;
52029;SDS011;38043;53.224;6.580;2023-07-09T15:16:40;12.65;;;7.50;;
52029;SDS011;38043;53.224;6.580;2023-07-09T15:19:13;13.37;;;8.73;;
52029;SDS011;38043;53.224;6.580;2023-07-09T15:21:40;16.75;;;10.45;;
52029;SDS011;38043;53.224;6.580;2023-07-09T15:24:10;21.90;;;11.43;;
52029;SDS011;38043;53.224;6.580;2023-07-09T15:26:50;12.95;;;10.32;;
52029;SDS011;38043;53.224;6.580;2023-07-09T15:29:18;15.15;;;9.93;;
52029;SDS011;38043;53.224;6.580;2023-07-09T15:31:44;13.50;;;9.80;;
52029;SDS011;38043;53.224;6.580;2023-07-09T15:34:10;17.50;;;9.82;;
52029;SDS011;38043;53.224;6.580;2023-07-09T15:36:36;16.98;;;9.63;;
52029;SDS011;38043;53.224;6.580;2023-07-09T15:39:02;14.85;;;8.70;;
52029;SDS011;38043;53.224;6.580;2023-07-09T15:41:28;19.30;;;8.23;;